createdAt,value
2023-03-04T00:00:02.424Z,4.60
2023-03-04T00:02:37.307Z,4.60
2023-03-04T00:05:04.780Z,4.60
2023-03-04T00:07:31.733Z,4.60
2023-03-04T00:09:58.607Z,4.60
2023-03-04T00:14:52.769Z,4.60
2023-03-04T00:17:19.682Z,4.60
2023-03-04T00:19:47.235Z,4.70
2023-03-04T00:22:14.188Z,4.60
2023-03-04T00:24:41.180Z,4.70
2023-03-04T00:29:35.415Z,4.60
2023-03-04T00:34:32.405Z,4.60
2023-03-04T00:37:01.594Z,4.70
2023-03-04T00:39:29.010Z,4.70
2023-03-04T00:41:55.943Z,4.70
2023-03-04T00:44:22.846Z,4.70
2023-03-04T00:46:49.902Z,4.80
2023-03-04T00:51:44.027Z,4.80
2023-03-04T00:54:10.924Z,4.80
2023-03-04T00:56:37.895Z,4.80
2023-03-04T01:03:59.791Z,4.90
2023-03-04T01:08:54.261Z,5.00
2023-03-04T01:13:48.681Z,5.00
2023-03-04T01:16:15.837Z,5.10
2023-03-04T01:18:42.745Z,5.10
2023-03-04T01:21:09.640Z,5.10
2023-03-04T01:23:36.517Z,5.20
2023-03-04T01:26:03.609Z,5.20
2023-03-04T01:30:57.697Z,5.30
2023-03-04T01:33:24.651Z,5.30
2023-03-04T01:35:51.628Z,5.30
2023-03-04T01:38:18.602Z,5.30
2023-03-04T01:40:45.594Z,5.30
2023-03-04T01:43:22.729Z,5.30
2023-03-04T01:45:50.742Z,5.30
2023-03-04T01:48:22.167Z,5.30
2023-03-04T01:53:26.492Z,5.30
2023-03-04T01:56:12.891Z,5.30
2023-03-04T01:58:39.815Z,5.30
2023-03-04T02:01:06.680Z,5.30
2023-03-04T02:03:33.700Z,5.30
2023-03-04T02:06:01.960Z,5.30
2023-03-04T02:08:29.141Z,5.30
2023-03-04T02:10:57.595Z,5.30
2023-03-04T02:15:52.154Z,5.30
2023-03-04T02:18:25.803Z,5.20
2023-03-04T02:21:15.203Z,5.40
2023-03-04T02:24:05.045Z,5.30
2023-03-04T02:26:33.854Z,5.40
2023-03-04T02:29:02.321Z,5.30
2023-03-04T02:31:41.646Z,5.40
2023-03-04T02:34:16.406Z,5.40
2023-03-04T02:36:45.512Z,5.40
2023-03-04T02:39:21.512Z,5.30
2023-03-04T02:41:51.964Z,5.40
2023-03-04T02:44:21.488Z,5.40
2023-03-04T02:46:50.485Z,5.40
2023-03-04T02:49:17.962Z,5.40
2023-03-04T02:51:44.940Z,5.40
2023-03-04T02:54:20.878Z,5.40
2023-03-04T02:56:49.349Z,5.50
2023-03-04T02:59:17.722Z,5.40
2023-03-04T03:01:45.255Z,5.40
2023-03-04T03:04:13.044Z,5.50
2023-03-04T03:06:40.678Z,5.50
2023-03-04T03:09:08.114Z,5.50
2023-03-04T03:11:35.566Z,5.50
2023-03-04T03:14:04.486Z,5.50
2023-03-04T03:16:31.624Z,5.50
2023-03-04T03:21:29.167Z,5.60
2023-03-04T03:23:56.064Z,5.40
2023-03-04T03:26:22.983Z,5.40
2023-03-04T03:31:17.754Z,5.40
2023-03-04T03:33:46.916Z,5.40
2023-03-04T03:36:13.904Z,5.40
2023-03-04T03:38:40.768Z,5.40
2023-03-04T03:41:07.671Z,5.40
2023-03-04T03:43:34.525Z,5.40
2023-03-04T03:46:01.497Z,5.40
2023-03-04T03:48:28.365Z,5.40
2023-03-04T03:50:55.229Z,5.40
2023-03-04T03:53:22.114Z,5.50
2023-03-04T04:00:43.745Z,5.50
2023-03-04T04:03:15.242Z,5.40
2023-03-04T04:05:42.128Z,5.40
2023-03-04T04:08:16.115Z,5.40
2023-03-04T04:10:43.623Z,5.40
2023-03-04T04:13:10.773Z,5.40
2023-03-04T04:15:38.817Z,5.40
2023-03-04T04:18:07.189Z,5.40
2023-03-04T04:20:34.462Z,5.40
2023-03-04T04:23:01.389Z,5.40
2023-03-04T04:25:28.301Z,5.40
2023-03-04T04:27:55.201Z,5.50
2023-03-04T04:32:49.430Z,5.50
2023-03-04T04:35:16.367Z,5.60
2023-03-04T04:40:11.199Z,5.50
2023-03-04T04:45:06.048Z,5.50
2023-03-04T04:47:32.864Z,5.50
2023-03-04T04:49:59.760Z,5.50
2023-03-04T04:52:26.549Z,5.50
2023-03-04T04:54:53.438Z,5.50
2023-03-04T04:57:20.254Z,5.50
2023-03-04T04:59:47.087Z,5.60
2023-03-04T05:02:13.993Z,5.60
2023-03-04T05:04:40.932Z,5.60
2023-03-04T05:07:07.779Z,5.60
2023-03-04T05:09:34.884Z,5.60
2023-03-04T05:12:02.377Z,5.60
2023-03-04T05:14:29.300Z,5.60
2023-03-04T05:19:23.424Z,5.60
2023-03-04T05:24:17.618Z,5.60
2023-03-04T05:26:44.526Z,5.60
2023-03-04T05:29:11.391Z,5.70
2023-03-04T05:31:38.316Z,5.70
2023-03-04T05:34:05.247Z,5.70
2023-03-04T05:36:32.097Z,5.70
2023-03-04T05:38:59.071Z,8.30
2023-03-04T05:41:26.029Z,5.60
2023-03-04T05:46:25.579Z,5.70
2023-03-04T05:48:54.088Z,5.70
2023-03-04T05:51:22.387Z,5.80
2023-03-04T05:53:49.885Z,5.70
2023-03-04T05:56:19.073Z,5.70
2023-03-04T05:58:47.626Z,6.80
2023-03-04T06:01:14.956Z,5.70
2023-03-04T06:03:43.539Z,5.70
2023-03-04T06:08:38.049Z,5.70
2023-03-04T06:11:05.721Z,5.70
2023-03-04T06:13:34.718Z,5.70
2023-03-04T06:16:02.288Z,6.00
2023-03-04T06:18:29.618Z,5.70
2023-03-04T06:20:58.798Z,5.70
2023-03-04T06:25:55.050Z,5.70
2023-03-04T06:28:22.626Z,5.70
2023-03-04T06:30:53.115Z,5.70
2023-03-04T06:33:20.625Z,5.80
2023-03-04T06:35:48.057Z,5.80
2023-03-04T06:38:15.115Z,5.80
2023-03-04T06:43:09.610Z,5.80
2023-03-04T06:45:39.444Z,5.70
2023-03-04T06:48:06.504Z,6.30
2023-03-04T06:50:33.422Z,5.80
2023-03-04T06:53:00.276Z,5.80
2023-03-04T06:55:27.244Z,5.80
2023-03-04T06:57:54.161Z,5.80
2023-03-04T07:00:24.068Z,5.80
2023-03-04T07:02:53.344Z,5.80
2023-03-04T07:05:21.815Z,5.80
2023-03-04T07:07:49.599Z,5.70
2023-03-04T07:10:18.383Z,5.70
2023-03-04T07:12:45.650Z,5.80
2023-03-04T07:15:12.578Z,5.80
2023-03-04T07:17:39.424Z,5.80
2023-03-04T07:20:07.029Z,5.90
2023-03-04T07:22:33.899Z,5.90
2023-03-04T07:25:00.936Z,5.90
2023-03-04T07:27:28.010Z,5.90
2023-03-04T07:29:55.032Z,6.00
2023-03-04T07:32:22.206Z,5.90
2023-03-04T07:34:49.126Z,5.90
2023-03-04T07:37:16.119Z,5.70
2023-03-04T07:39:46.144Z,6.00
2023-03-04T07:42:13.324Z,6.00
2023-03-04T07:44:42.146Z,6.00
2023-03-04T07:47:09.042Z,6.10
2023-03-04T07:49:35.921Z,6.10
2023-03-04T07:52:06.311Z,6.10
2023-03-04T07:54:33.175Z,6.10
2023-03-04T07:57:00.095Z,6.10
2023-03-04T07:59:26.953Z,6.10
2023-03-04T08:04:21.194Z,6.20
2023-03-04T08:06:48.925Z,6.20
2023-03-04T08:09:15.896Z,6.20
2023-03-04T08:11:44.096Z,6.30
2023-03-04T08:14:13.816Z,6.30
2023-03-04T08:16:40.818Z,6.30
2023-03-04T08:19:08.114Z,6.30
2023-03-04T08:21:35.397Z,6.30
2023-03-04T08:24:08.092Z,6.30
2023-03-04T08:26:41.311Z,6.30
2023-03-04T08:29:11.468Z,6.30
2023-03-04T08:31:39.467Z,6.30
2023-03-04T08:34:08.563Z,6.40
2023-03-04T08:36:35.707Z,6.40
2023-03-04T08:39:04.057Z,6.40
2023-03-04T08:41:31.337Z,6.60
2023-03-04T08:43:59.888Z,6.40
2023-03-04T08:46:26.834Z,6.50
2023-03-04T08:48:53.698Z,6.60
2023-03-04T08:51:20.949Z,6.50
2023-03-04T08:53:47.812Z,6.60
2023-03-04T08:56:15.430Z,6.50
2023-03-04T09:01:11.998Z,6.50
2023-03-04T09:03:39.493Z,6.60
2023-03-04T09:06:07.636Z,6.60
2023-03-04T09:08:35.404Z,6.70
2023-03-04T09:11:02.738Z,6.60
2023-03-04T09:13:31.322Z,8.30
2023-03-04T09:15:59.111Z,6.60
2023-03-04T09:18:26.821Z,6.70
2023-03-04T09:20:54.451Z,6.70
2023-03-04T09:25:49.877Z,6.70
2023-03-04T09:28:18.256Z,6.70
2023-03-04T09:30:45.282Z,6.70
2023-03-04T09:33:12.457Z,8.10
2023-03-04T09:35:39.592Z,6.70
2023-03-04T09:40:46.576Z,6.70
2023-03-04T09:43:33.876Z,6.70
2023-03-04T09:46:04.628Z,6.70
2023-03-04T09:48:44.873Z,7.10
2023-03-04T09:51:54.515Z,6.70
2023-03-04T09:54:36.838Z,6.70
2023-03-04T09:57:30.158Z,6.80
2023-03-04T10:00:20.757Z,8.30
2023-03-04T10:02:53.434Z,6.80
2023-03-04T10:05:23.273Z,6.90
2023-03-04T10:07:58.016Z,6.90
2023-03-04T10:10:37.357Z,6.90
2023-03-04T10:13:06.368Z,6.90
2023-03-04T10:15:48.983Z,6.80
2023-03-04T10:18:20.578Z,6.90
2023-03-04T10:21:00.367Z,6.80
2023-03-04T10:23:29.633Z,6.90
2023-03-04T10:25:59.372Z,6.90
2023-03-04T10:28:30.229Z,7.00
2023-03-04T10:31:16.761Z,6.90
2023-03-04T10:33:43.908Z,6.90
2023-03-04T10:36:32.135Z,6.90
2023-03-04T10:39:06.799Z,6.90
2023-03-04T10:41:34.046Z,6.90
2023-03-04T10:44:10.492Z,6.90
2023-03-04T10:46:41.942Z,7.00
2023-03-04T10:49:11.378Z,7.10
2023-03-04T10:52:15.400Z,7.10
2023-03-04T10:54:48.928Z,7.00
2023-03-04T10:57:31.121Z,8.40
2023-03-04T11:00:00.097Z,7.00
2023-03-04T11:02:36.037Z,7.00
2023-03-04T11:05:24.163Z,7.10
2023-03-04T11:07:57.498Z,7.10
2023-03-04T11:10:36.911Z,7.10
2023-03-04T11:13:26.719Z,7.10
2023-03-04T11:15:59.534Z,7.10
2023-03-04T11:18:44.001Z,7.20
2023-03-04T11:21:22.572Z,7.20
2023-03-04T11:23:57.718Z,7.20
2023-03-04T11:26:45.529Z,7.20
2023-03-04T11:29:21.570Z,7.20
2023-03-04T11:32:04.424Z,7.20
2023-03-04T11:34:58.520Z,7.30
2023-03-04T11:37:55.521Z,7.20
2023-03-04T11:40:44.160Z,7.20
2023-03-04T11:43:17.410Z,7.20
2023-03-04T11:46:11.534Z,7.20
2023-03-04T11:49:07.163Z,7.20
2023-03-04T11:51:40.170Z,7.10
2023-03-04T11:54:23.538Z,7.10
2023-03-04T11:56:52.502Z,7.10
2023-03-04T11:59:28.366Z,7.10
2023-03-04T12:02:12.155Z,7.10
2023-03-04T12:04:44.839Z,7.10
2023-03-04T12:07:14.872Z,7.10
2023-03-04T12:09:56.723Z,7.20
2023-03-04T12:12:29.800Z,7.20
2023-03-04T12:15:39.803Z,7.40
2023-03-04T12:18:48.184Z,7.30
2023-03-04T12:21:37.803Z,7.20
2023-03-04T12:24:42.862Z,7.30
2023-03-04T12:27:45.129Z,7.30
2023-03-04T12:30:21.177Z,7.30
2023-03-04T12:33:11.894Z,7.30
2023-03-04T12:35:47.251Z,7.40
2023-03-04T12:38:34.345Z,7.40
2023-03-04T12:41:39.772Z,7.40
2023-03-04T12:44:23.299Z,7.40
2023-03-04T12:47:16.441Z,7.40
2023-03-04T12:50:03.030Z,7.30
2023-03-04T12:55:02.600Z,7.40
2023-03-04T12:57:31.747Z,7.40
2023-03-04T13:00:26.351Z,7.40
2023-03-04T13:03:32.653Z,7.40
2023-03-04T13:06:18.847Z,7.40
2023-03-04T13:08:54.906Z,7.40
2023-03-04T13:11:31.347Z,7.40
2023-03-04T13:14:26.885Z,7.40
2023-03-04T13:17:01.786Z,7.40
2023-03-04T13:19:55.912Z,7.40
2023-03-04T13:22:37.999Z,7.50
2023-03-04T13:25:44.360Z,7.40
2023-03-04T13:28:11.422Z,7.30
2023-03-04T13:33:08.845Z,7.20
2023-03-04T13:36:01.861Z,7.20
2023-03-04T13:41:21.916Z,7.10
2023-03-04T13:43:52.114Z,7.10
2023-03-04T13:46:19.283Z,7.10
2023-03-04T13:48:52.433Z,7.10
2023-03-04T13:51:29.420Z,7.00
2023-03-04T13:54:13.059Z,7.00
2023-03-04T13:56:46.455Z,7.10
2023-03-04T13:59:26.332Z,7.20
2023-03-04T14:01:56.254Z,7.20
2023-03-04T14:04:28.713Z,7.20
2023-03-04T14:06:59.105Z,7.30
2023-03-04T14:09:27.529Z,7.30
2023-03-04T14:11:57.751Z,7.40
2023-03-04T14:14:28.773Z,7.40
2023-03-04T14:17:02.194Z,7.40
2023-03-04T14:19:32.410Z,7.50
2023-03-04T14:22:00.921Z,7.40
2023-03-04T14:24:27.862Z,7.50
2023-03-04T14:27:12.018Z,7.50
2023-03-04T14:32:07.474Z,7.50
2023-03-04T14:34:37.936Z,7.50
2023-03-04T14:37:19.404Z,7.60
2023-03-04T14:39:50.175Z,7.60
2023-03-04T14:42:19.447Z,7.60
2023-03-04T14:44:49.984Z,7.60
2023-03-04T14:47:36.237Z,7.70
2023-03-04T14:50:12.623Z,7.70
2023-03-04T14:52:48.607Z,7.60
2023-03-04T14:55:15.462Z,7.50
2023-03-04T14:57:44.627Z,7.40
2023-03-04T15:00:20.678Z,7.30
2023-03-04T15:03:00.261Z,7.10
2023-03-04T15:08:03.670Z,7.00
2023-03-04T15:10:36.572Z,7.00
2023-03-04T15:13:06.331Z,6.90
2023-03-04T15:15:40.027Z,6.80
2023-03-04T15:18:27.695Z,6.80
2023-03-04T15:21:20.442Z,6.80
2023-03-04T15:23:47.461Z,6.80
2023-03-04T15:26:14.527Z,6.80
2023-03-04T15:28:42.698Z,6.80
2023-03-04T15:31:18.018Z,6.80
2023-03-04T15:33:45.258Z,6.80
2023-03-04T15:36:18.682Z,6.80
2023-03-04T15:38:48.931Z,6.80
2023-03-04T15:41:24.780Z,6.80
2023-03-04T15:43:53.168Z,6.90
2023-03-04T15:46:21.113Z,6.90
2023-03-04T15:48:48.915Z,6.90
2023-03-04T15:51:22.356Z,6.90
2023-03-04T15:54:14.303Z,6.90
2023-03-04T15:56:41.550Z,6.80
2023-03-04T15:59:14.465Z,6.80
2023-03-04T16:01:41.572Z,6.80
2023-03-04T16:04:16.941Z,6.80
2023-03-04T16:06:45.495Z,6.80
2023-03-04T16:09:14.749Z,6.80
2023-03-04T16:11:45.617Z,6.90
2023-03-04T16:14:14.431Z,6.80
2023-03-04T16:16:42.113Z,6.80
2023-03-04T16:19:09.169Z,6.80
2023-03-04T16:21:36.272Z,6.80
2023-03-04T16:24:03.611Z,6.80
2023-03-04T16:26:31.194Z,6.80
2023-03-04T16:28:58.198Z,6.80
2023-03-04T16:31:25.251Z,6.80
2023-03-04T16:36:23.408Z,6.80
2023-03-04T16:38:51.468Z,6.80
2023-03-04T16:41:22.967Z,6.80
2023-03-04T16:43:49.966Z,6.90
2023-03-04T16:46:16.937Z,6.80
2023-03-04T16:48:43.884Z,6.80
2023-03-04T16:51:19.843Z,6.90
2023-03-04T16:54:00.360Z,6.90
2023-03-04T16:56:27.878Z,6.90
2023-03-04T16:58:54.964Z,6.90
2023-03-04T17:01:25.721Z,6.90
2023-03-04T17:03:53.722Z,6.90
2023-03-04T17:06:23.802Z,6.90
2023-03-04T17:08:51.129Z,6.90
2023-03-04T17:11:23.364Z,6.90
2023-03-04T17:13:51.418Z,6.90
2023-03-04T17:16:18.899Z,6.90
2023-03-04T17:18:46.207Z,6.90
2023-03-04T17:21:16.331Z,6.90
2023-03-04T17:23:43.232Z,6.90
2023-03-04T17:26:10.451Z,6.90
2023-03-04T17:28:38.277Z,6.80
2023-03-04T17:31:17.576Z,6.90
2023-03-04T17:33:44.786Z,6.80
2023-03-04T17:36:13.094Z,6.70
2023-03-04T17:38:40.714Z,6.70
2023-03-04T17:41:11.011Z,6.60
2023-03-04T17:43:37.743Z,6.60
2023-03-04T17:46:07.165Z,6.50
2023-03-04T17:48:34.674Z,6.50
2023-03-04T17:51:02.306Z,6.50
2023-03-04T17:53:29.773Z,8.10
2023-03-04T17:56:01.977Z,6.50
2023-03-04T17:58:34.074Z,6.60
2023-03-04T18:01:04.827Z,6.60
2023-03-04T18:03:35.155Z,6.60
2023-03-04T18:06:02.150Z,6.60
2023-03-04T18:08:29.046Z,6.60
2023-03-04T18:10:56.148Z,6.60
2023-03-04T18:13:23.514Z,6.60
2023-03-04T18:15:50.647Z,6.70
2023-03-04T18:20:45.136Z,6.80
2023-03-04T18:23:12.260Z,6.60
2023-03-04T18:25:40.048Z,6.60
2023-03-04T18:28:07.191Z,6.70
2023-03-04T18:30:34.389Z,6.70
2023-03-04T18:33:02.673Z,6.70
2023-03-04T18:35:29.657Z,6.70
2023-03-04T18:38:00.192Z,6.70
2023-03-04T18:40:28.705Z,6.60
2023-03-04T18:42:57.283Z,6.70
2023-03-04T18:45:25.246Z,6.80
2023-03-04T18:47:55.516Z,6.70
2023-03-04T18:50:22.701Z,6.70
2023-03-04T18:52:52.710Z,6.70
2023-03-04T18:55:20.862Z,6.70
2023-03-04T18:57:54.565Z,6.60
2023-03-04T19:00:23.647Z,6.60
2023-03-04T19:02:57.272Z,6.60
2023-03-04T19:05:27.792Z,6.60
2023-03-04T19:07:55.286Z,6.50
2023-03-04T19:10:23.951Z,6.50
2023-03-04T19:12:51.296Z,6.60
2023-03-04T19:15:18.779Z,6.50
2023-03-04T19:17:48.994Z,6.50
2023-03-04T19:20:16.227Z,6.40
2023-03-04T19:22:43.894Z,6.40
2023-03-04T19:25:12.164Z,6.40
2023-03-04T19:27:39.318Z,6.40
2023-03-04T19:30:07.328Z,6.40
2023-03-04T19:32:34.405Z,6.40
2023-03-04T19:35:02.696Z,6.50
2023-03-04T19:37:29.687Z,6.40
2023-03-04T19:39:57.265Z,6.40
2023-03-04T19:42:30.448Z,6.30
2023-03-04T19:44:58.090Z,6.40
2023-03-04T19:47:27.943Z,6.30
2023-03-04T19:49:55.033Z,6.30
2023-03-04T19:52:22.571Z,6.40
2023-03-04T19:54:49.725Z,6.40
2023-03-04T19:57:16.746Z,6.40
2023-03-04T19:59:45.361Z,6.40
2023-03-04T20:02:12.884Z,6.40
2023-03-04T20:04:40.331Z,6.40
2023-03-04T20:07:07.569Z,6.40
2023-03-04T20:09:37.798Z,7.50
2023-03-04T20:12:06.208Z,6.40
2023-03-04T20:14:34.837Z,6.30
2023-03-04T20:17:03.791Z,6.30
2023-03-04T20:19:31.982Z,6.30
2023-03-04T20:21:58.891Z,6.30
2023-03-04T20:24:26.992Z,6.20
2023-03-04T20:29:21.877Z,6.20
2023-03-04T20:31:49.421Z,6.20
2023-03-04T20:34:17.336Z,6.20
2023-03-04T20:36:44.917Z,6.20
2023-03-04T20:39:27.559Z,6.20
2023-03-04T20:41:59.043Z,6.20
2023-03-04T20:44:26.954Z,6.20
2023-03-04T20:46:54.564Z,6.30
2023-03-04T20:49:25.835Z,6.30
2023-03-04T20:51:55.111Z,7.00
2023-03-04T20:54:22.659Z,6.30
2023-03-04T20:56:50.007Z,6.40
2023-03-04T20:59:17.513Z,6.30
2023-03-04T21:01:47.933Z,6.20
2023-03-04T21:04:15.245Z,6.30
2023-03-04T21:06:42.344Z,6.30
2023-03-04T21:09:13.229Z,6.30
2023-03-04T21:11:41.063Z,6.30
2023-03-04T21:14:22.993Z,6.30
2023-03-04T21:16:55.287Z,6.20
2023-03-04T21:19:31.823Z,6.10
2023-03-04T21:22:00.783Z,6.00
2023-03-04T21:24:30.719Z,6.00
2023-03-04T21:26:58.484Z,6.10
2023-03-04T21:29:28.127Z,6.00
2023-03-04T21:32:01.532Z,6.10
2023-03-04T21:34:38.346Z,6.00
2023-03-04T21:37:05.977Z,6.00
2023-03-04T21:39:33.469Z,6.10
2023-03-04T21:42:00.889Z,6.10
2023-03-04T21:44:45.216Z,6.10
2023-03-04T21:47:15.286Z,6.10
2023-03-04T21:49:42.211Z,6.20
2023-03-04T21:52:09.212Z,6.10
2023-03-04T21:54:36.078Z,6.20
2023-03-04T21:57:03.185Z,6.20
2023-03-04T21:59:30.213Z,6.10
2023-03-04T22:01:57.143Z,6.10
2023-03-04T22:06:51.347Z,6.20
2023-03-04T22:09:18.244Z,6.00
2023-03-04T22:11:45.246Z,6.10
2023-03-04T22:14:12.236Z,6.10
2023-03-04T22:16:54.149Z,6.10
2023-03-04T22:19:25.970Z,6.10
2023-03-04T22:21:53.758Z,6.10
2023-03-04T22:24:23.905Z,6.10
2023-03-04T22:29:18.195Z,6.10
2023-03-04T22:31:45.731Z,6.10
2023-03-04T22:34:15.367Z,6.20
2023-03-04T22:36:44.709Z,6.20
2023-03-04T22:39:14.198Z,6.10
2023-03-04T22:41:41.583Z,6.10
2023-03-04T22:44:08.542Z,6.10
2023-03-04T22:46:38.401Z,6.20
2023-03-04T22:49:11.366Z,6.20
2023-03-04T22:51:41.455Z,6.20
2023-03-04T22:54:10.973Z,6.10
2023-03-04T22:56:39.179Z,6.20
2023-03-04T22:59:06.178Z,6.10
2023-03-04T23:01:33.101Z,6.00
2023-03-04T23:06:30.227Z,6.10
2023-03-04T23:08:58.658Z,6.10
2023-03-04T23:11:28.422Z,6.10
2023-03-04T23:13:56.628Z,6.10
2023-03-04T23:16:25.621Z,6.10
2023-03-04T23:18:53.329Z,6.10
2023-03-04T23:21:24.943Z,6.10
2023-03-04T23:23:52.447Z,6.00
2023-03-04T23:26:20.681Z,6.00
2023-03-04T23:28:47.965Z,6.00
2023-03-04T23:31:15.054Z,6.00
2023-03-04T23:33:47.602Z,6.00
2023-03-04T23:36:17.413Z,5.90
2023-03-04T23:38:45.973Z,5.90
2023-03-04T23:41:17.988Z,5.90
2023-03-04T23:43:45.209Z,6.00
2023-03-04T23:46:12.787Z,6.00
2023-03-04T23:48:43.186Z,5.90
2023-03-04T23:51:10.128Z,6.00
2023-03-04T23:56:14.177Z,6.00
2023-03-04T23:58:42.700Z,5.90
